Terminal Aerodrome Forecast
Issued by NWS

Current Version | Previous Version | Text Only | Print | Product List | Glossary On
Versions: 1 2 3 4 5 6 7 8 9 10 11 12 13 14 15 16 17 18 19 20 21 22 23 24 25 26 27 28 29 30
522
FTUS43 KDVN 031730
TAFBRL
TAF
KBRL 031730Z 0318/0418 28010KT P6SM BKN060
     FM040200 25008KT P6SM BKN080
     FM040500 24008KT P6SM VCSH BKN060
      TEMPO 0406/0408 5SM -SHRA BKN040
     FM040900 32010KT P6SM BKN100
     FM041200 35011KT P6SM SKC=

USA.gov is the U.S. government's official web portal to all federal, state and local government web resources and services.